Airfield :
LOGIN :

Register | Disclaimer

   EN    FR    IT 

 










Legend :    VFR   Marginal VFR   IFR   Intensive IFR   Very Intensive IFR
Visi :
Ceiling :
>= 8 km
>= 3000ft
5 to 8 km
1000 to 3000 ft
1500m to 5 km
500 to 1000 ft
800 to 1500m
200 to 500 ft
< 800m
< 200 ft
Symbols :   Thunderstorms  Fog  Heavy snow  Heavy precipitations  Wind > 20 kt
SIGMETs :     Misc.  Thunderstorms  Icing  Turbulence  Mountain Waves  Volcanic Ashes







- Airport Elevation : 681 ft
- IATA code : OSL


ENGM - Oslo Gardermoen

CURRENT METAR :
  • 160850Z 10004KT 070V160 9999 -SN FEW006 BKN009 M03/M04 Q1022 TEMPO SCT008 BKN012

EXPIRED METARs :
  • 160820Z 10003KT 060V130 9999 -SN SCT007 OVC009 M03/M04 Q1022 TEMPO SCT008 BKN012
  • 160750Z 09003KT 050V120 9999 -SN BKN008 OVC012 M03/M04 Q1022 TEMPO SCT008 BKN012
  • 160720Z 09003KT 040V130 9999 -SN OVC008 M03/M04 Q1022 TEMPO BKN010
  • 160650Z VRB02KT 9999 -SN SCT008 OVC010 M03/M04 Q1023 TEMPO 4000 -SN BKN008
  • 160620Z VRB02KT 9999 -SN SCT007 BKN010 OVC012 M04/M04 Q1023 TEMPO 4000 -SN OVC008

TAF TAF ENGM
Valid from the 16 at 06:00 until the 17 at 06:00 UTC


1606/1706 04005KT 9000 -SN SCT005 BKN015
TEMPO 1606/1609 2000 -SN BR OVC006
TEMPO 1618/1706 3000 -SN BR OVC006
No reported NOTAMs for that airfield.
3 SIGMETs reported for the Norway FIR (ENOR) :
 
Severe mountain waves
ENSV SIGMET B03 VALID 160800/161200 ENVV
ENOR NORWAY FIR SEV MTW FCST WI N5800 E00730 - N5830 E00530 - N6200 E00530 - N6200 E00730 - N5800 E00730 SFC/FL200 STNR NC=
Severe mountain waves
ENOS SIGMET A03 VALID 160800/161200 ENMI
ENOR NORWAY FIR SEV MTW FCST WI N6050 E00730 - N6200 E00730 - N6200 E00900 - N6050 E00730 SFC/FL200 STNR WKN=
Severe mountain waves
ENBD SIGMET C03 VALID 160800/161200 ENVV
ENOR NORWAY FIR SEV MTW FCST WI N6200 E00530 - N6300 E00830 - N6400 E01240 - N6200 E01215 - N6200 E00530 SFC/FL200 STNR NC=



MET'MAP, your aeronautical weather chart ! - Copyright ORBIFLY December 2007 - Disclaimer

ORBIFLY MET'MAP TEAM :

Programming & Development : Alexandra Zaïnal
Concept & Development : Baudouin d'Aumeries
Co-Development & Prog : Marc-Olivier Méhu
Technical & hardware support : Manuel Goepfert

Contact : metmap@orbifly.com




SOURCES & CREDITS :

   NOAA